createdAt,value
2022-10-22T00:00:39.768Z,100660.84
2022-10-22T00:03:42.451Z,100672.72
2022-10-22T00:06:45.197Z,100681.81
2022-10-22T00:09:48.567Z,100689.53
2022-10-22T00:12:51.287Z,100690.38
2022-10-22T00:15:55.301Z,100695.88
2022-10-22T00:18:58.065Z,100688.72
2022-10-22T00:22:00.909Z,100683.19
2022-10-22T00:25:03.579Z,100682.38
2022-10-22T00:28:06.568Z,100677.66
2022-10-22T00:31:10.748Z,100674.38
2022-10-22T00:34:13.412Z,100660.03
2022-10-22T00:37:16.060Z,100661.97
2022-10-22T00:40:18.937Z,100664.72
2022-10-22T00:43:21.811Z,100662.25
2022-10-22T00:46:25.860Z,100660.91
2022-10-22T00:49:28.571Z,100645.19
2022-10-22T00:52:31.137Z,100661.75
2022-10-22T00:55:34.341Z,100654.31
2022-10-22T00:58:43.754Z,100662.91
2022-10-22T01:01:48.041Z,100674.22
2022-10-22T01:04:50.861Z,100682.53
2022-10-22T01:07:54.958Z,100680.06
2022-10-22T01:11:09.138Z,100679.53
2022-10-22T01:14:21.802Z,100702.19
2022-10-22T01:17:34.020Z,100701.34
2022-10-22T01:20:56.190Z,100691.19
2022-10-22T01:24:32.920Z,100685.91
2022-10-22T01:27:45.882Z,100683.16
2022-10-22T01:30:53.621Z,100677.09
2022-10-22T01:33:56.405Z,100673.50
2022-10-22T01:37:01.424Z,100675.69
2022-10-22T01:40:06.447Z,100675.69
2022-10-22T01:43:11.586Z,100670.19
2022-10-22T01:46:18.076Z,100671.00
2022-10-22T01:49:29.329Z,100669.09
2022-10-22T01:52:46.340Z,100678.47
2022-10-22T01:56:00.197Z,100679.03
2022-10-22T01:59:09.054Z,100683.78
2022-10-22T02:02:18.461Z,100673.31
2022-10-22T02:05:24.264Z,100681.59
2022-10-22T02:08:32.257Z,100686.81
2022-10-22T02:11:35.444Z,100697.88
2022-10-22T02:14:42.570Z,100700.09
2022-10-22T02:17:48.220Z,100701.75
2022-10-22T02:20:51.585Z,100693.78
2022-10-22T02:23:54.303Z,100679.97
2022-10-22T02:27:03.964Z,100678.34
2022-10-22T02:30:09.723Z,100680.53
2022-10-22T02:33:20.488Z,100678.34
2022-10-22T02:36:24.859Z,100682.44
2022-10-22T02:39:28.419Z,100674.75
2022-10-22T02:42:31.601Z,100683.03
2022-10-22T02:45:35.581Z,100683.28
2022-10-22T02:48:39.514Z,100691.84
2022-10-22T02:51:42.224Z,100691.03
2022-10-22T02:54:44.976Z,100684.97
2022-10-22T02:57:47.534Z,100681.94
2022-10-22T03:00:50.445Z,100694.09
2022-10-22T03:03:54.369Z,100695.19
2022-10-22T03:06:57.328Z,100688.84
2022-10-22T03:10:00.079Z,100675.34
2022-10-22T03:13:02.929Z,100677.25
2022-10-22T03:16:06.096Z,100673.41
2022-10-22T03:19:10.032Z,100675.88
2022-10-22T03:22:16.727Z,100674.25
2022-10-22T03:25:21.958Z,100664.03
2022-10-22T03:28:24.530Z,100669.84
2022-10-22T03:31:27.308Z,100675.59
2022-10-22T03:34:31.216Z,100679.19
2022-10-22T03:37:35.041Z,100678.38
2022-10-22T03:40:37.831Z,100673.69
2022-10-22T03:43:40.887Z,100672.84
2022-10-22T03:46:43.581Z,100680.59
2022-10-22T03:49:47.490Z,100681.69
2022-10-22T03:52:50.225Z,100679.75
2022-10-22T03:55:52.874Z,100688.84
2022-10-22T03:58:57.501Z,100691.91
2022-10-22T04:02:00.154Z,100697.13
2022-10-22T04:05:04.211Z,100697.44
2022-10-22T04:08:06.932Z,100697.44
2022-10-22T04:11:10.458Z,100705.69
2022-10-22T04:14:13.067Z,100717.84
2022-10-22T04:17:16.075Z,100728.03
2022-10-22T04:20:19.969Z,100722.28
2022-10-22T04:23:23.153Z,100725.59
2022-10-22T04:26:26.339Z,100723.66
2022-10-22T04:29:28.895Z,100724.16
2022-10-22T04:32:31.728Z,100719.75
2022-10-22T04:35:39.510Z,100714.53
2022-10-22T04:38:43.413Z,100722.81
2022-10-22T04:41:48.411Z,100717.84
2022-10-22T04:44:51.046Z,100708.75
2022-10-22T04:47:53.741Z,100706.00
2022-10-22T04:51:00.723Z,100706.81
2022-10-22T04:54:03.422Z,100707.09
2022-10-22T04:57:06.133Z,100705.19
2022-10-22T05:00:09.867Z,100703.53
2022-10-22T05:03:12.594Z,100700.22
2022-10-22T05:06:17.089Z,100707.94
2022-10-22T05:09:22.132Z,100712.63
2022-10-22T05:12:24.839Z,100713.72
2022-10-22T05:15:27.377Z,100718.41
2022-10-22T05:18:30.045Z,100721.16
2022-10-22T05:21:34.410Z,100720.06
2022-10-22T05:24:38.009Z,100723.94
2022-10-22T05:27:40.962Z,100726.16
2022-10-22T05:30:43.730Z,100724.78
2022-10-22T05:33:47.270Z,100732.22
2022-10-22T05:36:51.176Z,100728.91
2022-10-22T05:40:01.848Z,100728.38
2022-10-22T05:43:15.518Z,100729.72
2022-10-22T05:46:22.456Z,100736.06
2022-10-22T05:49:25.641Z,100736.06
2022-10-22T05:52:29.541Z,100735.53
2022-10-22T05:55:36.992Z,100729.22
2022-10-22T05:58:40.490Z,100727.84
2022-10-22T06:01:43.093Z,100732.78
2022-10-22T06:04:45.906Z,100743.25
2022-10-22T06:07:49.881Z,100748.22
2022-10-22T06:10:52.700Z,100755.66
2022-10-22T06:13:55.378Z,100750.69
2022-10-22T06:17:00.778Z,100754.56
2022-10-22T06:23:12.316Z,100754.28
2022-10-22T06:26:15.501Z,100759.50
2022-10-22T06:29:18.433Z,100765.03
2022-10-22T06:32:20.987Z,100760.88
2022-10-22T06:35:23.668Z,100774.38
2022-10-22T06:38:27.554Z,100770.28
2022-10-22T06:41:30.423Z,100771.06
2022-10-22T06:44:33.772Z,100771.88
2022-10-22T06:47:36.288Z,100771.63
2022-10-22T06:50:38.975Z,100767.50
2022-10-22T06:53:42.987Z,100777.69
2022-10-22T06:56:45.743Z,100776.03
2022-10-22T06:59:48.536Z,100787.59
2022-10-22T07:02:57.784Z,100787.03
2022-10-22T07:06:04.429Z,100795.28
2022-10-22T07:09:08.450Z,100796.38
2022-10-22T07:12:11.360Z,100798.56
2022-10-22T07:15:14.138Z,100797.41
2022-10-22T07:18:16.691Z,100795.72
2022-10-22T07:21:20.530Z,100800.97
2022-10-22T07:24:24.553Z,100796.50
2022-10-22T07:27:27.228Z,100808.38
2022-10-22T07:30:29.809Z,100826.03
2022-10-22T07:33:32.902Z,100831.81
2022-10-22T07:36:35.642Z,100838.69
2022-10-22T07:39:39.601Z,100839.25
2022-10-22T07:42:42.282Z,100838.69
2022-10-22T07:45:44.988Z,100848.38
2022-10-22T07:48:47.675Z,100841.69
2022-10-22T07:51:50.400Z,100845.03
2022-10-22T07:54:54.298Z,100853.66
2022-10-22T07:57:56.955Z,100848.06
2022-10-22T08:01:01.481Z,100853.16
2022-10-22T08:04:04.077Z,100849.91
2022-10-22T08:07:06.939Z,100850.25
2022-10-22T08:10:12.524Z,100857.28
2022-10-22T08:13:16.141Z,100860.16
2022-10-22T08:16:18.837Z,100867.22
2022-10-22T08:19:21.374Z,100869.50
2022-10-22T08:22:24.097Z,100870.16
2022-10-22T08:25:28.587Z,100872.91
2022-10-22T08:28:33.038Z,100877.41
2022-10-22T08:31:35.827Z,100876.84
2022-10-22T08:34:38.403Z,100877.91
2022-10-22T08:37:41.429Z,100889.50
2022-10-22T08:40:49.942Z,100895.22
2022-10-22T08:44:20.290Z,100888.31
2022-10-22T08:47:38.953Z,100895.81
2022-10-22T08:50:44.132Z,100895.28
2022-10-22T08:53:59.625Z,100909.63
2022-10-22T08:57:17.860Z,100908.22
2022-10-22T09:00:25.362Z,100909.06
2022-10-22T09:03:46.659Z,100909.63
2022-10-22T09:06:53.491Z,100909.13
2022-10-22T09:10:00.794Z,100913.56
2022-10-22T09:13:05.251Z,100905.50
2022-10-22T09:16:16.834Z,100909.03
2022-10-22T09:19:26.767Z,100910.41
2022-10-22T09:22:37.485Z,100917.00
2022-10-22T09:25:41.133Z,100917.28
2022-10-22T09:28:45.200Z,100921.34
2022-10-22T09:31:47.920Z,100927.22
2022-10-22T09:34:51.574Z,100931.00
2022-10-22T09:38:00.703Z,100931.09
2022-10-22T09:41:03.763Z,100932.81
2022-10-22T09:44:08.511Z,100929.56
2022-10-22T09:47:42.739Z,100949.19
2022-10-22T09:50:48.376Z,100947.19
2022-10-22T09:53:58.104Z,100940.28
2022-10-22T09:57:07.293Z,100939.94
2022-10-22T10:00:13.517Z,100949.41
2022-10-22T10:03:22.357Z,100955.47
2022-10-22T10:06:25.208Z,100949.16
2022-10-22T10:09:37.355Z,100954.66
2022-10-22T10:12:47.783Z,100954.56
2022-10-22T10:15:58.904Z,100949.63
2022-10-22T10:19:18.541Z,100951.31
2022-10-22T10:22:34.808Z,100948.00
2022-10-22T10:25:47.332Z,100948.25
2022-10-22T10:29:01.437Z,100944.19
2022-10-22T10:32:21.139Z,100940.63
2022-10-22T10:35:29.300Z,100937.06
2022-10-22T10:38:55.139Z,100938.50
2022-10-22T10:42:08.635Z,100933.88
2022-10-22T10:45:18.759Z,100937.88
2022-10-22T10:48:34.192Z,100938.94
2022-10-22T10:51:43.413Z,100941.50
2022-10-22T10:54:52.488Z,100943.97
2022-10-22T10:58:05.210Z,100938.56
2022-10-22T11:01:16.600Z,100947.78
2022-10-22T11:04:52.522Z,100943.44
2022-10-22T11:08:00.785Z,100941.13
2022-10-22T11:11:08.302Z,100945.75
2022-10-22T11:14:14.844Z,100943.97
2022-10-22T11:17:19.744Z,100940.59
2022-10-22T11:20:31.540Z,100932.41
2022-10-22T11:23:39.094Z,100941.50
2022-10-22T11:26:47.774Z,100931.75
2022-10-22T11:29:54.963Z,100934.31
2022-10-22T11:33:01.676Z,100940.88
2022-10-22T11:36:08.676Z,100936.09
2022-10-22T11:39:36.532Z,100937.31
2022-10-22T11:42:43.262Z,100941.75
2022-10-22T11:45:51.481Z,100944.06
2022-10-22T11:49:06.915Z,100936.78
2022-10-22T11:52:28.053Z,100938.44
2022-10-22T11:55:46.088Z,100936.34
2022-10-22T11:58:53.751Z,100939.06
2022-10-22T12:01:57.647Z,100940.25
2022-10-22T12:05:34.913Z,100941.03
2022-10-22T12:08:45.346Z,100945.59
2022-10-22T12:11:51.235Z,100944.09
2022-10-22T12:14:57.277Z,100947.09
2022-10-22T12:18:02.282Z,100937.81
2022-10-22T12:21:05.079Z,100943.75
2022-10-22T12:24:15.183Z,100938.81
2022-10-22T12:27:23.312Z,100940.34
2022-10-22T12:30:28.889Z,100948.50
2022-10-22T12:33:32.681Z,100946.53
2022-10-22T12:36:37.314Z,100943.34
2022-10-22T12:39:41.365Z,100942.16
2022-10-22T12:42:48.905Z,100946.28
2022-10-22T12:45:52.646Z,100939.25
2022-10-22T12:48:55.931Z,100936.59
2022-10-22T12:52:02.206Z,100935.53
2022-10-22T12:55:08.416Z,100937.88
2022-10-22T12:58:18.710Z,100931.06
2022-10-22T13:01:21.700Z,100933.19
2022-10-22T13:04:33.958Z,100932.28
2022-10-22T13:07:40.075Z,100932.28
2022-10-22T13:10:51.671Z,100940.44
2022-10-22T13:14:02.876Z,100939.31
2022-10-22T13:17:08.315Z,100941.88
2022-10-22T13:20:19.648Z,100930.75
2022-10-22T13:23:23.873Z,100941.25
2022-10-22T13:26:33.556Z,100944.66
2022-10-22T13:29:38.191Z,100946.00
2022-10-22T13:35:44.304Z,100951.50
2022-10-22T13:38:46.912Z,100953.97
2022-10-22T13:41:51.442Z,100956.94
2022-10-22T13:44:54.004Z,100947.97
2022-10-22T13:47:57.060Z,100955.66
2022-10-22T13:50:59.702Z,100962.09
2022-10-22T13:54:03.801Z,100953.81
2022-10-22T13:57:09.978Z,100959.00
2022-10-22T14:00:15.086Z,100960.94
2022-10-22T14:03:20.960Z,100966.19
2022-10-22T14:06:24.011Z,100972.66
2022-10-22T14:09:26.730Z,100969.88
2022-10-22T14:12:31.741Z,100960.50
2022-10-22T14:15:35.469Z,100964.72
2022-10-22T14:18:38.150Z,100972.56
2022-10-22T14:21:40.875Z,100975.34
2022-10-22T14:24:43.565Z,100968.13
2022-10-22T14:27:47.605Z,100976.16
2022-10-22T14:30:51.233Z,100975.53
2022-10-22T14:33:53.931Z,100979.63
2022-10-22T14:36:56.484Z,100984.69
2022-10-22T14:40:02.484Z,100985.50
2022-10-22T14:43:06.950Z,100983.56
2022-10-22T14:46:11.944Z,100984.56
2022-10-22T14:49:14.761Z,100985.81
2022-10-22T14:52:17.439Z,100981.34
2022-10-22T14:55:21.199Z,100991.19
2022-10-22T14:58:25.098Z,100997.97
2022-10-22T15:01:27.759Z,101000.44
2022-10-22T15:04:30.542Z,100993.09
2022-10-22T15:07:33.423Z,100989.88
2022-10-22T15:10:36.130Z,100990.19
2022-10-22T15:13:41.230Z,100997.16
2022-10-22T15:16:43.773Z,100998.91
2022-10-22T15:19:46.543Z,100995.31
2022-10-22T15:22:49.156Z,101001.72
2022-10-22T15:25:51.804Z,101009.31
2022-10-22T15:28:56.276Z,101009.16
2022-10-22T15:31:59.475Z,101012.63
2022-10-22T15:35:02.741Z,101006.91
2022-10-22T15:38:06.523Z,101018.09
2022-10-22T15:41:12.516Z,101017.00
2022-10-22T15:44:18.517Z,101015.22
2022-10-22T15:47:21.216Z,101024.78
2022-10-22T15:50:23.825Z,101018.53
2022-10-22T15:53:26.398Z,101022.25
2022-10-22T15:56:30.164Z,101020.13
2022-10-22T15:59:34.090Z,101025.69
2022-10-22T16:02:36.718Z,101028.00
2022-10-22T16:05:39.405Z,101030.88
2022-10-22T16:08:41.999Z,101026.50
2022-10-22T16:11:45.128Z,101031.56
2022-10-22T16:14:51.109Z,101033.31
2022-10-22T16:17:53.671Z,101038.63
2022-10-22T16:20:56.237Z,101041.22
2022-10-22T16:24:05.996Z,101047.38
2022-10-22T16:27:09.775Z,101049.09
2022-10-22T16:30:14.653Z,101053.56
2022-10-22T16:33:17.344Z,101055.03
2022-10-22T16:36:21.431Z,101053.38
2022-10-22T16:39:24.493Z,101044.59
2022-10-22T16:42:27.213Z,101061.47
2022-10-22T16:45:31.182Z,101060.69
2022-10-22T16:48:34.315Z,101065.16
2022-10-22T16:51:37.401Z,101067.13
2022-10-22T16:54:40.009Z,101061.31
2022-10-22T16:57:42.970Z,101068.56
2022-10-22T17:00:47.092Z,101075.78
2022-10-22T17:03:49.835Z,101081.31
2022-10-22T17:06:52.510Z,101084.06
2022-10-22T17:09:55.064Z,101090.97
2022-10-22T17:12:57.804Z,101100.13
2022-10-22T17:16:03.877Z,101104.28
2022-10-22T17:19:06.641Z,101097.66
2022-10-22T17:22:09.321Z,101102.34
2022-10-22T17:25:14.766Z,101103.19
2022-10-22T17:28:17.479Z,101103.47
2022-10-22T17:31:23.450Z,101105.69
2022-10-22T17:34:27.236Z,101112.63
2022-10-22T17:37:30.173Z,101123.44
2022-10-22T17:40:32.763Z,101131.47
2022-10-22T17:43:36.572Z,101124.81
2022-10-22T17:46:40.805Z,101124.53
2022-10-22T17:49:43.541Z,101134.25
2022-10-22T17:52:46.423Z,101145.00
2022-10-22T17:55:48.994Z,101145.59
2022-10-22T17:58:52.393Z,101142.28
2022-10-22T18:01:59.482Z,101145.59
2022-10-22T18:05:02.825Z,101148.38
2022-10-22T18:08:07.833Z,101151.69
2022-10-22T18:11:13.006Z,101150.81
2022-10-22T18:14:15.713Z,101155.00
2022-10-22T18:17:19.629Z,101158.28
2022-10-22T18:20:22.357Z,101156.63
2022-10-22T18:23:24.952Z,101148.06
2022-10-22T18:26:27.601Z,101151.09
2022-10-22T18:29:30.368Z,101155.53
2022-10-22T18:32:34.977Z,101153.88
2022-10-22T18:35:37.813Z,101151.38
2022-10-22T18:38:40.815Z,101155.53
2022-10-22T18:41:43.643Z,101144.75
2022-10-22T18:44:46.382Z,101152.25
2022-10-22T18:47:50.364Z,101137.88
2022-10-22T18:51:00.854Z,101139.50
2022-10-22T18:54:05.817Z,101144.22
2022-10-22T18:57:14.201Z,101132.63
2022-10-22T19:00:17.620Z,101146.16
2022-10-22T19:03:24.403Z,101146.69
2022-10-22T19:06:34.477Z,101146.13
2022-10-22T19:09:40.822Z,101142.56
2022-10-22T19:12:43.624Z,101151.66
2022-10-22T19:15:46.388Z,101154.16
2022-10-22T19:18:50.954Z,101156.09
2022-10-22T19:21:56.524Z,101155.53
2022-10-22T19:24:59.242Z,101162.41
2022-10-22T19:28:01.966Z,101165.19
2022-10-22T19:31:06.040Z,101166.56
2022-10-22T19:34:11.088Z,101165.19
2022-10-22T19:37:13.880Z,101176.22
2022-10-22T19:40:16.635Z,101175.66
2022-10-22T19:43:19.267Z,101180.63
2022-10-22T19:46:23.566Z,101188.94
2022-10-22T19:49:27.632Z,101196.09
2022-10-22T19:52:30.346Z,101201.59
2022-10-22T19:55:32.971Z,101198.63
2022-10-22T19:58:35.830Z,101194.19
2022-10-22T20:01:39.132Z,101193.91
2022-10-22T20:04:45.665Z,101194.50
2022-10-22T20:07:51.739Z,101201.97
2022-10-22T20:10:54.410Z,101203.31
2022-10-22T20:13:57.517Z,101210.22
2022-10-22T20:17:00.452Z,101208.31
2022-10-22T20:20:05.136Z,101211.34
2022-10-22T20:23:08.694Z,101211.34
2022-10-22T20:26:12.779Z,101214.41
2022-10-22T20:29:16.072Z,101229.03
2022-10-22T20:32:18.784Z,101231.22
2022-10-22T20:35:22.686Z,101229.31
2022-10-22T20:38:25.316Z,101232.63
2022-10-22T20:41:28.269Z,101232.88
2022-10-22T20:44:33.655Z,101242.28
2022-10-22T20:47:50.905Z,101251.38
2022-10-22T20:50:55.841Z,101253.03
2022-10-22T20:53:58.798Z,101262.16
2022-10-22T20:57:02.069Z,101252.50
2022-10-22T21:00:05.255Z,101267.69
2022-10-22T21:03:08.004Z,101259.69
2022-10-22T21:06:11.915Z,101266.28
2022-10-22T21:09:15.867Z,101266.88
2022-10-22T21:12:18.658Z,101261.63
2022-10-22T21:15:21.315Z,101263.31
2022-10-22T21:18:24.039Z,101263.84
2022-10-22T21:21:28.031Z,101267.16
2022-10-22T21:24:30.898Z,101272.41
2022-10-22T21:27:34.381Z,101266.31
2022-10-22T21:30:36.970Z,101270.47
2022-10-22T21:33:40.545Z,101272.41
2022-10-22T21:36:44.905Z,101269.63
2022-10-22T21:39:47.588Z,101278.19
2022-10-22T21:42:51.402Z,101281.22
2022-10-22T21:46:07.743Z,101278.72
2022-10-22T21:49:11.166Z,101283.16
2022-10-22T21:52:15.134Z,101287.28
2022-10-22T21:55:17.980Z,101285.63
2022-10-22T21:58:20.684Z,101289.22
2022-10-22T22:01:23.916Z,101278.16
2022-10-22T22:04:27.125Z,101291.97
2022-10-22T22:07:31.019Z,101298.84
2022-10-22T22:10:33.708Z,101302.44
2022-10-22T22:13:37.168Z,101297.19
2022-10-22T22:16:40.618Z,101287.19
2022-10-22T22:19:43.853Z,101288.56
2022-10-22T22:22:47.757Z,101284.44
2022-10-22T22:25:50.567Z,101278.31
2022-10-22T22:28:53.252Z,101280.53
2022-10-22T22:31:56.205Z,101279.97
2022-10-22T22:34:58.881Z,101283.81
2022-10-22T22:38:02.804Z,101279.09
2022-10-22T22:41:06.130Z,101266.66
2022-10-22T22:44:12.932Z,101275.19
2022-10-22T22:47:15.504Z,101274.59
2022-10-22T22:50:18.337Z,101278.16
2022-10-22T22:53:22.309Z,101274.53
2022-10-22T22:56:28.805Z,101269.56
2022-10-22T22:59:31.510Z,101277.00
2022-10-22T23:02:34.085Z,101279.66
2022-10-22T23:05:37.615Z,101280.47
2022-10-22T23:08:42.183Z,101281.78
2022-10-22T23:11:46.846Z,101286.19
2022-10-22T23:14:51.212Z,101296.91
2022-10-22T23:17:53.798Z,101292.50
2022-10-22T23:20:56.483Z,101292.72
2022-10-22T23:24:02.977Z,101297.38
2022-10-22T23:27:05.914Z,101293.16
2022-10-22T23:30:10.243Z,101297.81
2022-10-22T23:33:13.162Z,101299.47
2022-10-22T23:36:16.143Z,101300.50
2022-10-22T23:39:22.591Z,101297.25
2022-10-22T23:42:25.260Z,101300.25
2022-10-22T23:45:28.014Z,101304.34
2022-10-22T23:48:30.551Z,101293.03
2022-10-22T23:51:33.374Z,101296.91
2022-10-22T23:54:37.279Z,101298.09
2022-10-22T23:57:39.953Z,101283.94
